This is the latest recevied weather packets stored in our database for station/object VU3OPX-13. If no packets are shown the sender has not sent any weather packets the latest 10 day(s).
| Time | Temp. | Humidity | Pressure | Rain* | Wind** | Luminosity | Snow |
|---|---|---|---|---|---|---|---|
| 1787853498 | 21.11° C | 95% | 1013 hPa | 0 mm | - | - | - |
| 1787851711 | 21.11° C | 94% | 1013 hPa | 0 mm | - | - | - |
| 1787849923 | 21.11° C | 94% | 1013 hPa | 0 mm | - | - | - |
| 1787848136 | 21.67° C | 92% | 1013 hPa | 0 mm | - | - | - |
| 1787846354 | 21.67° C | 92% | 1013 hPa | 0 mm | - | - | - |
| 1787844569 | 22.22° C | 90% | 1012 hPa | 0 mm | - | - | - |
| 1787842774 | 22.22° C | 90% | 1012 hPa | 0 mm | - | - | - |
| 1787840987 | 22.78° C | 87% | 1012 hPa | 0 mm | - | - | - |
| 1787839199 | 22.78° C | 87% | 1012 hPa | 0 mm | - | - | - |
| 1787837412 | 22.78° C | 87% | 1012 hPa | 0 mm | - | - | - |
| 1787835625 | 23.89° C | 83% | 1011 hPa | 0 mm | - | - | - |
| 1787833837 | 23.89° C | 83% | 1011 hPa | 0 mm | - | - | - |
| 1787832050 | 25° C | 76% | 1010 hPa | 0 mm | - | - | - |
| 1787830263 | 25° C | 76% | 1010 hPa | 0 mm | - | - | - |
| 1787828476 | 26.11° C | 72% | 1010 hPa | 0 mm | - | - | - |
| 1787826689 | 26.11° C | 72% | 1010 hPa | 0 mm | - | - | - |
| 1787821323 | 27.22° C | 68% | 1010 hPa | 0 mm | - | - | - |
| 1787819536 | 26.67° C | 70% | 1010 hPa | 0 mm | - | - | - |
| 1787817748 | 27.22° C | 69% | 1010 hPa | 0 mm | - | - | - |
| 1787815965 | 27.22° C | 68% | 1010 hPa | 0 mm | - | - | - |
| 1787814174 | 27.22° C | 70% | 1011 hPa | 0 mm | - | - | - |
| 1787812387 | 26.67° C | 70% | 1011 hPa | 0 mm | - | - | - |
| 1787810600 | 26.67° C | 70% | 1012 hPa | 0 mm | - | - | - |
| 1787808812 | 26.67° C | 70% | 1012 hPa | 0 mm | - | - | - |
| 1787807025 | 26.11° C | 72% | 1012 hPa | 0 mm | - | - | - |
* Rain latest hour (hover to see other rain measurements)
** Current wind speed in m/s (hover to see current wind gust speed)